Time;durP1;ratioP1;P1;durP2;ratioP2;P2;SDS_P1;SDS_P2;PMS_P1;PMS_P2;Temp;Humidity;BMP_temperature;BMP_pressure;BME280_temperature;BME280_humidity;BME280_pressure;Samples;Min_cycle;Max_cycle;Signal;HPM_P1;HPM_P2
2023/01/29 00:02:15;;;;;;;30.00;21.00;;;29.60;73.00;;;;;;5047699;28;20218;-69
2023/01/29 00:04:42;;;;;;;28.20;20.97;;;29.70;74.50;;;;;;5050528;28;20184;-69
2023/01/29 00:07:09;;;;;;;26.83;19.07;;;29.80;73.00;;;;;;5051026;28;20618;-69
2023/01/29 00:09:37;;;;;;;23.03;17.03;;;30.10;72.40;;;;;;5051129;28;20223;-68
2023/01/29 00:12:04;;;;;;;19.77;16.30;;;30.10;71.90;;;;;;5050496;28;20246;-70
2023/01/29 00:14:31;;;;;;;23.20;15.73;;;30.30;72.30;;;;;;5051065;28;20642;-69
2023/01/29 00:16:59;;;;;;;21.90;14.97;;;30.20;71.10;;;;;;5050114;28;20594;-69
2023/01/29 00:19:26;;;;;;;23.73;18.83;;;30.20;70.80;;;;;;5050538;28;20550;-72
2023/01/29 00:21:53;;;;;;;20.27;16.13;;;30.30;70.80;;;;;;5050615;28;20188;-69
2023/01/29 00:24:21;;;;;;;24.60;17.83;;;30.30;70.50;;;;;;5050355;28;20187;-70
2023/01/29 00:26:49;;;;;;;19.83;14.87;;;30.70;70.80;;;;;;5054276;28;20229;-70
2023/01/29 00:29:17;;;;;;;21.97;15.40;;;30.90;68.40;;;;;;5054433;28;20215;-70
2023/01/29 00:31:45;;;;;;;21.77;16.00;;;30.80;68.40;;;;;;5050265;28;20203;-69
2023/01/29 00:34:13;;;;;;;23.53;14.73;;;30.80;69.00;;;;;;5054198;28;20222;-69
2023/01/29 00:36:43;;;;;;;24.57;15.13;;;30.80;68.70;;;;;;5053935;28;20267;-68
2023/01/29 00:39:10;;;;;;;19.97;14.57;;;30.30;70.30;;;;;;5052627;28;20864;-69
2023/01/29 00:49:54;;;;;;;25.27;13.93;;;31.20;68.20;;;;;;5053639;28;20214;-69
2023/01/29 00:52:24;;;;;;;22.30;14.43;;;31.30;67.60;;;;;;5054046;28;20231;-71
2023/01/29 00:54:57;;;;;;;18.07;13.83;;;31.20;68.10;;;;;;5054053;28;20274;-72
2023/01/29 00:57:27;;;;;;;23.88;14.57;;;31.60;67.80;;;;;;5054332;28;20258;-69
2023/01/29 00:59:54;;;;;;;21.40;14.10;;;31.80;65.80;;;;;;5053511;28;20318;-72
2023/01/29 01:05:12;;;;;;;19.42;13.30;;;31.70;66.00;;;;;;5053750;28;20585;-71
2023/01/29 01:07:40;;;;;;;22.90;13.60;;;31.60;66.90;;;;;;5053777;28;20184;-69
2023/01/29 01:10:23;;;;;;;21.17;13.43;;;31.80;66.40;;;;;;5053289;28;20203;-69
2023/01/29 01:12:55;;;;;;;21.80;12.13;;;32.00;65.60;;;;;;5052042;28;20188;-69
2023/01/29 01:15:25;;;;;;;22.33;12.30;;;31.70;66.90;;;;;;5052739;28;20200;-69
2023/01/29 01:17:57;;;;;;;23.35;11.48;;;31.30;67.60;;;;;;5052862;28;20571;-70
2023/01/29 01:20:26;;;;;;;22.52;11.43;;;31.30;68.20;;;;;;5052187;28;20176;-74
2023/01/29 01:22:54;;;;;;;22.55;10.75;;;31.20;69.00;;;;;;5053332;28;20184;-74
2023/01/29 01:25:23;;;;;;;20.63;9.43;;;31.10;68.80;;;;;;5052796;28;20252;-73
2023/01/29 01:27:55;;;;;;;22.38;10.02;;;31.00;69.30;;;;;;5051317;28;20176;-71
2023/01/29 01:30:23;;;;;;;17.50;10.03;;;30.90;69.80;;;;;;5053277;28;20212;-72
2023/01/29 01:32:50;;;;;;;19.17;10.97;;;30.60;70.80;;;;;;5051745;28;20184;-70
2023/01/29 01:35:18;;;;;;;17.45;10.00;;;31.10;69.50;;;;;;5053025;28;20244;-68
2023/01/29 01:37:45;;;;;;;17.13;9.57;;;31.80;67.90;;;;;;5053065;28;20183;-70
2023/01/29 01:40:16;;;;;;;21.38;10.60;;;32.10;66.10;;;;;;5052721;28;20570;-76
2023/01/29 01:42:57;;;;;;;16.35;10.02;;;31.70;67.30;;;;;;5053269;28;20187;-74
2023/01/29 01:45:35;;;;;;;18.52;10.88;;;31.60;67.10;;;;;;5052752;28;20191;-69
2023/01/29 01:48:16;;;;;;;21.17;11.35;;;31.60;67.50;;;;;;5053044;28;20582;-69
2023/01/29 01:51:05;;;;;;;21.37;11.80;;;31.40;67.10;;;;;;5051434;28;20247;-71
2023/01/29 01:53:48;;;;;;;19.27;10.55;;;31.10;68.20;;;;;;5051849;28;20255;-70
2023/01/29 01:56:27;;;;;;;20.27;11.63;;;31.30;67.60;;;;;;5052753;28;20275;-69
2023/01/29 01:58:58;;;;;;;25.08;11.30;;;31.80;66.60;;;;;;5052690;28;20180;-73
2023/01/29 02:01:27;;;;;;;20.95;11.00;;;32.00;65.50;;;;;;5052505;28;20183;-72
2023/01/29 02:09:54;;;;;;;16.92;11.32;;;31.40;67.00;;;;;;5050542;28;20311;-69
2023/01/29 02:12:23;;;;;;;21.05;11.10;;;31.10;68.10;;;;;;5052381;28;20564;-72
2023/01/29 02:14:51;;;;;;;21.90;10.75;;;31.10;67.90;;;;;;5052217;28;20254;-70
2023/01/29 02:17:19;;;;;;;19.48;11.85;;;31.00;68.00;;;;;;5052509;28;20183;-69
2023/01/29 02:19:51;;;;;;;20.10;10.10;;;31.00;68.70;;;;;;5051944;28;20176;-72
2023/01/29 02:22:36;;;;;;;23.98;10.45;;;31.00;68.30;;;;;;5050150;28;20595;-70
2023/01/29 02:25:24;;;;;;;17.15;9.07;;;31.00;68.80;;;;;;5051843;28;20195;-71
2023/01/29 02:28:25;;;;;;;20.33;9.10;;;31.40;67.40;;;;;;5050890;28;20183;-68
2023/01/29 02:31:13;;;;;;;16.08;8.32;;;31.30;67.80;;;;;;5051974;28;20302;-69
2023/01/29 02:34:19;;;;;;;20.67;8.77;;;31.10;67.90;;;;;;5049068;28;20198;-69
2023/01/29 02:37:08;;;;;;;24.33;11.30;;;30.90;68.70;;;;;;5028980;28;20192;-70
2023/01/29 02:39:51;;;;;;;17.30;7.60;;;31.20;67.90;;;;;;5028455;28;20187;-69
2023/01/29 02:42:41;;;;;;;22.63;7.68;;;31.00;68.20;;;;;;5045220;28;20676;-69
2023/01/29 02:45:38;;;;;;;21.65;7.85;;;31.00;68.50;;;;;;5050412;28;21641;-72
2023/01/29 02:48:07;;;;;;;14.95;7.00;;;30.90;68.50;;;;;;5051611;28;20215;-70
2023/01/29 02:50:57;;;;;;;13.57;7.10;;;30.80;68.20;;;;;;5051772;28;20276;-75
2023/01/29 02:53:36;;;;;;;12.15;6.25;;;30.50;68.90;;;;;;5049038;28;20578;-70
2023/01/29 02:56:09;;;;;;;14.83;7.03;;;30.30;68.90;;;;;;5051763;28;20184;-74
2023/01/29 02:58:45;;;;;;;13.73;6.10;;;30.30;69.10;;;;;;5051718;28;20262;-72
2023/01/29 03:01:29;;;;;;;12.23;5.30;;;30.30;69.50;;;;;;5051620;28;20175;-69
2023/01/29 03:04:02;;;;;;;17.30;5.80;;;30.30;69.50;;;;;;5051799;28;20270;-69
2023/01/29 03:06:42;;;;;;;13.30;5.60;;;30.20;70.00;;;;;;5051534;28;20180;-73
2023/01/29 03:09:42;;;;;;;12.43;5.03;;;30.30;69.60;;;;;;5050817;28;20180;-73
2023/01/29 03:12:35;;;;;;;17.48;5.53;;;30.30;69.80;;;;;;5046521;28;20204;-72
2023/01/29 03:15:11;;;;;;;13.30;4.50;;;30.30;69.90;;;;;;5051022;28;20192;-72
2023/01/29 03:18:26;;;;;;;15.70;5.20;;;30.60;68.80;;;;;;5051587;28;20233;-73
2023/01/29 03:21:49;;;;;;;16.00;5.18;;;30.80;68.30;;;;;;5028980;28;20207;-73
2023/01/29 03:32:21;;;;;;;18.60;8.95;;;31.10;68.00;;;;;;5051579;28;20234;-72
2023/01/29 03:34:53;;;;;;;14.93;6.83;;;31.30;66.50;;;;;;5051075;28;20179;-75
2023/01/29 03:37:44;;;;;;;15.40;5.97;;;31.10;66.80;;;;;;5051042;28;20188;-71
2023/01/29 03:40:12;;;;;;;13.73;8.33;;;31.00;66.90;;;;;;5051093;28;20187;-73
2023/01/29 03:43:24;;;;;;;16.65;7.05;;;30.70;68.10;;;;;;5051392;28;20188;-72
2023/01/29 03:45:58;;;;;;;14.27;7.88;;;30.60;68.10;;;;;;5051057;28;20179;-70
2023/01/29 03:48:36;;;;;;;11.27;7.17;;;30.50;68.30;;;;;;5048080;28;20182;-73
2023/01/29 03:51:21;;;;;;;16.83;9.32;;;30.80;68.20;;;;;;5050946;28;20258;-69
2023/01/29 03:53:58;;;;;;;15.67;9.73;;;31.00;66.50;;;;;;5050279;28;20277;-67
2023/01/29 03:56:36;;;;;;;18.93;10.40;;;31.30;66.30;;;;;;5046315;28;20187;-70
2023/01/29 03:59:17;;;;;;;17.30;10.48;;;30.90;66.00;;;;;;5051188;28;20217;-67
2023/01/29 04:01:55;;;;;;;13.63;10.90;;;30.60;67.30;;;;;;5052326;28;20591;-70
2023/01/29 04:04:32;;;;;;;16.13;12.60;;;30.60;66.60;;;;;;5046740;28;20180;-68
2023/01/29 04:07:15;;;;;;;19.90;11.88;;;30.50;67.80;;;;;;5053641;28;20218;-68
2023/01/29 04:09:46;;;;;;;18.67;11.93;;;30.40;67.50;;;;;;5054261;28;20211;-70
2023/01/29 04:12:17;;;;;;;17.10;12.40;;;30.40;67.60;;;;;;5054473;28;20192;-68
2023/01/29 04:14:45;;;;;;;15.30;10.80;;;30.30;66.90;;;;;;5054250;28;20180;-71
2023/01/29 04:17:38;;;;;;;14.63;8.87;;;30.10;67.40;;;;;;5054450;28;20211;-72
2023/01/29 04:20:06;;;;;;;18.13;8.73;;;30.10;66.00;;;;;;5054568;28;20203;-71
2023/01/29 04:22:36;;;;;;;12.23;7.57;;;30.20;66.80;;;;;;5054777;28;20184;-72
2023/01/29 04:25:14;;;;;;;15.73;7.95;;;30.60;64.90;;;;;;5053945;28;20267;-70
2023/01/29 04:27:51;;;;;;;13.30;7.70;;;31.00;62.70;;;;;;5054772;28;20175;-69
2023/01/29 04:30:36;;;;;;;11.00;6.68;;;31.10;61.60;;;;;;5054326;28;20220;-69
2023/01/29 04:33:44;;;;;;;10.27;6.40;;;31.30;60.70;;;;;;5054826;28;20233;-71
2023/01/29 04:36:32;;;;;;;11.20;6.75;;;31.10;59.80;;;;;;5052094;28;20571;-73
2023/01/29 04:39:08;;;;;;;10.82;7.00;;;31.00;60.40;;;;;;5051435;28;20257;-71
2023/01/29 04:41:56;;;;;;;14.85;6.65;;;31.00;60.80;;;;;;5054092;28;20188;-68
2023/01/29 04:44:32;;;;;;;10.43;7.85;;;31.00;60.80;;;;;;5051283;28;20229;-67
2023/01/29 04:47:18;;;;;;;10.50;7.70;;;30.70;61.70;;;;;;5053135;28;20211;-67
2023/01/29 04:49:56;;;;;;;17.47;8.43;;;30.70;62.20;;;;;;5051786;28;20207;-72
2023/01/29 04:58:41;;;;;;;11.33;7.47;;;30.40;64.30;;;;;;5051252;28;20249;-73
2023/01/29 05:01:13;;;;;;;13.80;8.43;;;30.30;64.70;;;;;;5050409;28;20187;-68
2023/01/29 05:03:46;;;;;;;14.53;8.00;;;30.40;64.90;;;;;;5053264;28;20660;-71
2023/01/29 05:06:15;;;;;;;14.27;8.35;;;30.40;65.50;;;;;;5050846;28;20191;-73
2023/01/29 05:08:42;;;;;;;14.80;8.77;;;30.60;65.50;;;;;;5053063;28;20638;-73
2023/01/29 05:11:10;;;;;;;16.07;9.77;;;30.70;65.60;;;;;;5052455;28;20306;-71
2023/01/29 05:13:42;;;;;;;15.33;9.47;;;30.60;66.10;;;;;;5051779;28;20180;-72
2023/01/29 05:16:16;;;;;;;18.60;10.03;;;30.30;67.30;;;;;;5053851;28;20188;-74
2023/01/29 05:18:44;;;;;;;19.42;10.63;;;30.20;67.70;;;;;;5053849;28;20187;-74
2023/01/29 05:21:12;;;;;;;17.37;11.33;;;30.00;67.90;;;;;;5053744;28;20190;-73
2023/01/29 05:23:51;;;;;;;20.03;11.50;;;29.80;69.30;;;;;;5053046;28;20639;-73
2023/01/29 05:29:07;;;;;;;17.37;10.43;;;29.50;70.10;;;;;;5050723;28;20268;-72
2023/01/29 05:31:34;;;;;;;15.33;10.87;;;29.60;70.20;;;;;;5049738;28;20295;-75
2023/01/29 05:34:02;;;;;;;19.13;12.07;;;29.50;70.50;;;;;;5053175;28;20534;-72
2023/01/29 05:36:29;;;;;;;18.10;10.27;;;29.40;70.20;;;;;;5052241;28;20241;-72
2023/01/29 05:38:56;;;;;;;20.53;10.43;;;29.30;71.10;;;;;;5052583;28;20187;-72
2023/01/29 05:41:24;;;;;;;17.80;9.77;;;29.10;72.50;;;;;;5053617;28;20565;-73
2023/01/29 05:43:51;;;;;;;17.63;9.63;;;29.00;73.10;;;;;;5053297;28;20192;-75
2023/01/29 05:46:18;;;;;;;18.93;9.93;;;28.90;73.40;;;;;;5053573;28;20180;-72
2023/01/29 05:48:46;;;;;;;19.93;9.67;;;28.90;73.40;;;;;;5053318;28;20191;-73
2023/01/29 05:51:13;;;;;;;22.70;11.53;;;29.00;73.50;;;;;;5052775;28;20717;-72
2023/01/29 05:53:40;;;;;;;18.50;11.87;;;28.90;71.80;;;;;;5052999;28;20219;-73
2023/01/29 05:56:08;;;;;;;17.00;10.80;;;28.90;72.10;;;;;;5050838;28;20188;-73
2023/01/29 05:58:35;;;;;;;14.83;10.03;;;29.00;71.90;;;;;;5053923;28;20192;-73
2023/01/29 06:01:17;;;;;;;18.87;11.10;;;29.00;72.40;;;;;;5052786;28;20192;-72
2023/01/29 06:03:45;;;;;;;16.23;10.00;;;29.00;72.40;;;;;;5052097;28;20188;-73
2023/01/29 06:06:13;;;;;;;19.00;10.57;;;29.00;72.40;;;;;;5050273;28;20626;-74
2023/01/29 06:08:41;;;;;;;18.93;11.63;;;29.00;71.70;;;;;;5052839;28;20199;-73
2023/01/29 06:11:10;;;;;;;16.93;9.63;;;29.10;72.30;;;;;;5049281;28;20227;-73
2023/01/29 06:13:38;;;;;;;15.93;10.13;;;29.10;72.30;;;;;;5053537;28;20712;-73
2023/01/29 06:16:07;;;;;;;20.27;10.90;;;28.90;73.00;;;;;;5049594;28;20191;-73
2023/01/29 06:18:35;;;;;;;19.20;10.70;;;28.90;73.00;;;;;;5053004;28;20188;-72
2023/01/29 06:21:03;;;;;;;10.33;7.10;;;29.00;72.70;;;;;;5052511;28;20571;-73
2023/01/29 06:23:31;;;;;;;11.97;6.77;;;28.80;71.40;;;;;;5047516;28;20806;-71
2023/01/29 06:26:03;;;;;;;10.07;6.77;;;28.60;70.20;;;;;;5039297;28;20184;-72
2023/01/29 06:28:31;;;;;;;7.07;5.97;;;28.40;70.00;;;;;;5038457;28;20638;-73
2023/01/29 06:30:59;;;;;;;9.77;6.87;;;28.30;70.50;;;;;;5052680;28;20230;-73
2023/01/29 06:33:27;;;;;;;10.43;7.07;;;28.40;70.80;;;;;;5052815;28;20271;-74
2023/01/29 06:36:02;;;;;;;8.73;6.80;;;28.40;70.90;;;;;;5051730;28;20199;-71
2023/01/29 06:38:30;;;;;;;12.83;7.90;;;28.40;71.30;;;;;;5052363;28;20187;-73
2023/01/29 06:40:57;;;;;;;13.43;7.17;;;28.50;71.90;;;;;;5052113;28;20199;-73
2023/01/29 06:43:25;;;;;;;11.60;6.87;;;28.50;71.60;;;;;;5052547;28;20180;-72
2023/01/29 06:45:56;;;;;;;12.83;6.83;;;28.60;70.90;;;;;;5050750;28;20184;-70
2023/01/29 06:48:24;;;;;;;14.63;7.63;;;28.50;71.20;;;;;;5053934;28;20215;-72
2023/01/29 06:50:54;;;;;;;8.93;6.10;;;28.50;70.90;;;;;;5051443;28;20242;-72
2023/01/29 06:53:21;;;;;;;10.93;6.70;;;28.40;70.90;;;;;;5051350;28;20215;-73
2023/01/29 06:55:52;;;;;;;8.37;5.90;;;28.30;71.40;;;;;;5051695;28;20206;-70
2023/01/29 06:58:19;;;;;;;8.97;6.50;;;28.20;71.90;;;;;;5046073;28;20634;-68
2023/01/29 07:00:47;;;;;;;10.07;6.33;;;28.30;71.90;;;;;;5052198;28;20613;-72
2023/01/29 07:03:14;;;;;;;11.53;6.37;;;28.20;72.20;;;;;;5054016;28;20188;-71
2023/01/29 07:05:42;;;;;;;13.27;5.90;;;28.10;72.60;;;;;;5054721;28;20188;-72
2023/01/29 07:08:09;;;;;;;10.13;6.07;;;28.10;72.10;;;;;;5054990;28;20206;-70
2023/01/29 07:10:36;;;;;;;10.23;5.90;;;28.10;72.60;;;;;;5051027;28;21435;-72
2023/01/29 07:13:04;;;;;;;11.50;6.37;;;28.00;73.00;;;;;;5052827;28;20617;-75
2023/01/29 07:15:31;;;;;;;9.93;6.43;;;28.00;72.90;;;;;;5051571;28;20183;-74
2023/01/29 07:18:10;;;;;;;11.17;6.73;;;28.00;73.30;;;;;;5052236;28;20202;-74
2023/01/29 07:20:39;;;;;;;9.33;5.97;;;27.90;73.90;;;;;;5053729;28;20180;-72
2023/01/29 07:23:11;;;;;;;9.70;6.33;;;27.90;73.80;;;;;;5052264;28;20638;-72
2023/01/29 07:25:39;;;;;;;13.10;7.93;;;27.90;73.90;;;;;;5056169;28;20171;-68
2023/01/29 07:28:06;;;;;;;14.07;6.87;;;27.90;74.30;;;;;;5051833;28;20634;-73
2023/01/29 07:30:34;;;;;;;11.53;6.77;;;27.90;74.10;;;;;;5050576;28;20235;-71
2023/01/29 07:33:07;;;;;;;13.20;6.70;;;28.00;74.00;;;;;;5052286;28;20591;-73
2023/01/29 07:35:39;;;;;;;10.43;6.30;;;28.00;73.90;;;;;;5046680;28;20187;-73
2023/01/29 07:38:08;;;;;;;9.60;6.43;;;28.10;73.20;;;;;;5052459;28;20183;-73
2023/01/29 07:40:36;;;;;;;8.57;6.40;;;28.10;73.00;;;;;;5050857;28;20306;-72
2023/01/29 07:43:06;;;;;;;8.73;5.90;;;28.10;72.90;;;;;;5063883;28;20184;-73
2023/01/29 07:45:35;;;;;;;14.60;6.67;;;28.10;72.80;;;;;;5051478;28;20190;-73
2023/01/29 07:48:04;;;;;;;9.33;6.80;;;28.00;72.70;;;;;;5058765;28;20270;-72
2023/01/29 07:50:33;;;;;;;10.13;6.70;;;28.00;72.90;;;;;;5057717;28;20192;-73
2023/01/29 07:53:00;;;;;;;12.47;7.43;;;28.00;73.00;;;;;;5057139;28;20227;-70
2023/01/29 07:55:28;;;;;;;10.97;7.03;;;28.00;73.50;;;;;;5053066;28;20255;-73
2023/01/29 07:57:57;;;;;;;11.13;6.87;;;27.90;74.10;;;;;;5055281;28;20202;-73
2023/01/29 08:00:25;;;;;;;9.67;7.33;;;27.90;74.70;;;;;;5053150;28;20647;-73
2023/01/29 08:02:52;;;;;;;14.13;7.77;;;27.80;75.00;;;;;;5051754;28;20377;-72
2023/01/29 08:05:20;;;;;;;9.10;7.27;;;27.70;74.90;;;;;;5051044;28;20251;-73
2023/01/29 08:07:56;;;;;;;10.40;7.00;;;27.70;75.10;;;;;;5050081;28;20255;-72
2023/01/29 08:10:23;;;;;;;11.00;8.00;;;27.70;75.00;;;;;;5051979;28;20364;-72
2023/01/29 08:13:01;;;;;;;15.20;7.87;;;27.70;75.00;;;;;;5050162;28;20541;-71
2023/01/29 08:15:29;;;;;;;13.53;8.20;;;27.70;75.10;;;;;;5051204;28;20266;-74
2023/01/29 08:17:56;;;;;;;18.73;10.23;;;27.70;75.40;;;;;;5051317;28;20230;-73
2023/01/29 08:20:24;;;;;;;14.70;10.47;;;27.80;75.40;;;;;;5050825;28;20519;-72
2023/01/29 08:22:59;;;;;;;14.00;8.83;;;27.90;75.60;;;;;;5050933;28;20184;-72
2023/01/29 08:25:27;;;;;;;13.03;8.27;;;27.90;76.30;;;;;;5051161;28;20176;-73
2023/01/29 08:27:58;;;;;;;12.87;8.30;;;27.90;76.50;;;;;;5051576;28;20194;-73
2023/01/29 08:30:31;;;;;;;13.53;8.43;;;27.90;76.60;;;;;;5059447;28;20299;-75
2023/01/29 08:32:58;;;;;;;10.60;7.57;;;27.80;76.60;;;;;;5052497;28;20837;-74
2023/01/29 08:35:26;;;;;;;11.17;7.97;;;27.70;77.10;;;;;;5055481;28;20229;-75
2023/01/29 08:37:55;;;;;;;14.17;9.07;;;27.70;77.50;;;;;;5052616;28;20191;-74
2023/01/29 08:40:22;;;;;;;12.50;8.27;;;27.70;77.50;;;;;;5046066;28;20184;-74
2023/01/29 08:42:50;;;;;;;12.73;8.17;;;27.60;77.50;;;;;;5049769;28;20202;-73
2023/01/29 08:45:17;;;;;;;8.57;7.23;;;27.50;77.20;;;;;;5049354;28;20266;-74
2023/01/29 08:47:49;;;;;;;11.30;8.10;;;27.50;77.20;;;;;;5056636;28;20646;-73
2023/01/29 08:50:17;;;;;;;13.43;8.23;;;27.50;77.20;;;;;;5054285;28;20759;-73
2023/01/29 08:52:45;;;;;;;10.97;7.57;;;27.50;77.40;;;;;;5053492;28;20220;-73
2023/01/29 08:55:13;;;;;;;13.53;8.37;;;27.50;77.80;;;;;;5054440;28;20191;-74
2023/01/29 08:57:40;;;;;;;11.00;7.83;;;27.50;77.70;;;;;;5054276;28;20210;-71
2023/01/29 09:00:09;;;;;;;14.50;8.23;;;27.40;78.10;;;;;;5046769;28;20184;-73
2023/01/29 09:02:37;;;;;;;13.33;8.57;;;27.40;78.10;;;;;;5054094;28;20184;-70
2023/01/29 09:05:05;;;;;;;12.43;8.20;;;27.30;77.70;;;;;;5054708;28;20268;-70
2023/01/29 09:07:32;;;;;;;13.00;8.00;;;27.50;77.30;;;;;;5053468;28;20184;-72
2023/01/29 09:10:00;;;;;;;11.00;8.27;;;27.60;76.70;;;;;;5053890;28;20204;-71
2023/01/29 09:12:27;;;;;;;14.83;8.17;;;27.50;76.90;;;;;;5052898;28;20207;-72
2023/01/29 09:14:54;;;;;;;14.67;7.80;;;27.60;77.30;;;;;;5053791;28;20259;-71
2023/01/29 09:17:22;;;;;;;15.57;8.73;;;27.60;77.60;;;;;;5054012;28;20176;-70
2023/01/29 09:19:51;;;;;;;11.43;7.70;;;27.60;78.00;;;;;;5053832;28;20222;-69
2023/01/29 09:22:19;;;;;;;15.10;8.93;;;27.60;78.00;;;;;;5054096;28;20179;-70
2023/01/29 09:24:47;;;;;;;14.70;9.57;;;27.50;78.10;;;;;;5051780;28;20188;-73
2023/01/29 09:27:14;;;;;;;18.67;9.80;;;27.40;78.30;;;;;;5053736;28;20211;-71
2023/01/29 09:29:41;;;;;;;13.53;8.70;;;27.40;78.60;;;;;;5053404;28;20186;-71
2023/01/29 09:32:09;;;;;;;12.30;9.37;;;27.30;79.40;;;;;;5053735;28;20267;-70
2023/01/29 09:34:36;;;;;;;14.63;9.93;;;27.30;79.40;;;;;;5051467;28;20212;-69
2023/01/29 09:37:03;;;;;;;14.57;10.47;;;27.30;79.90;;;;;;5053351;28;20195;-71
2023/01/29 09:39:31;;;;;;;18.87;10.60;;;27.20;80.30;;;;;;5052709;28;20184;-75
2023/01/29 09:42:10;;;;;;;16.67;9.97;;;27.20;80.90;;;;;;5052401;28;20199;-74
2023/01/29 09:44:58;;;;;;;15.70;8.80;;;27.20;80.60;;;;;;5052121;28;20188;-73
2023/01/29 09:47:27;;;;;;;13.70;8.70;;;27.20;80.30;;;;;;5050129;28;20544;-72
2023/01/29 09:50:15;;;;;;;13.03;7.47;;;27.10;80.30;;;;;;5052779;28;20231;-72
2023/01/29 09:52:51;;;;;;;10.87;6.57;;;26.90;80.60;;;;;;5052650;28;20273;-72
2023/01/29 09:55:27;;;;;;;8.53;5.93;;;26.80;80.60;;;;;;5048005;28;20179;-74
2023/01/29 09:58:24;;;;;;;10.37;6.33;;;26.60;80.00;;;;;;5051822;28;20187;-71
2023/01/29 10:01:17;;;;;;;8.03;5.63;;;26.40;81.00;;;;;;5051313;28;20652;-73
2023/01/29 10:03:44;;;;;;;8.33;5.20;;;26.20;80.80;;;;;;5066318;28;20184;-73
2023/01/29 10:06:37;;;;;;;10.20;5.10;;;26.10;80.90;;;;;;5050751;28;20259;-72
2023/01/29 10:09:30;;;;;;;7.40;4.90;;;26.10;81.10;;;;;;5052834;28;20180;-72
2023/01/29 10:12:26;;;;;;;7.40;5.20;;;25.80;80.90;;;;;;5053409;28;20222;-73
2023/01/29 10:15:02;;;;;;;8.97;4.40;;;25.80;80.80;;;;;;5051359;28;20443;-71
2023/01/29 10:17:39;;;;;;;9.17;4.80;;;25.80;80.40;;;;;;5052874;28;20245;-70
2023/01/29 10:20:10;;;;;;;7.23;4.53;;;25.80;80.20;;;;;;5051978;28;20188;-73
2023/01/29 10:22:53;;;;;;;8.30;4.63;;;25.80;80.10;;;;;;5052510;28;20539;-72
2023/01/29 10:25:22;;;;;;;6.30;4.13;;;25.70;80.20;;;;;;5048011;28;20214;-72
2023/01/29 10:27:53;;;;;;;7.33;4.10;;;25.70;80.20;;;;;;5052345;28;20262;-72
2023/01/29 10:30:37;;;;;;;8.87;3.70;;;25.70;80.20;;;;;;5051308;28;20300;-72
2023/01/29 10:33:11;;;;;;;8.33;3.87;;;25.70;80.60;;;;;;5052754;28;20188;-72
2023/01/29 10:35:48;;;;;;;3.73;2.80;;;25.60;80.30;;;;;;5052159;28;20172;-71
2023/01/29 10:38:38;;;;;;;3.70;2.70;;;25.40;79.30;;;;;;5051199;28;20171;-70
2023/01/29 10:41:15;;;;;;;4.60;3.03;;;25.30;78.30;;;;;;5050040;28;20175;-71
2023/01/29 10:44:11;;;;;;;3.63;2.40;;;25.30;78.40;;;;;;5081552;28;20649;-72
2023/01/29 10:46:57;;;;;;;4.73;2.90;;;25.30;78.70;;;;;;5053141;28;20184;-70
2023/01/29 10:49:33;;;;;;;5.43;2.60;;;25.30;78.30;;;;;;5051781;28;20180;-70
2023/01/29 10:52:20;;;;;;;4.93;3.00;;;25.30;78.50;;;;;;5051081;28;20203;-71
2023/01/29 10:54:51;;;;;;;4.90;2.90;;;25.30;78.50;;;;;;5049051;28;20188;-72
2023/01/29 10:57:36;;;;;;;3.83;2.80;;;25.30;78.50;;;;;;5049413;28;20187;-72
2023/01/29 11:00:22;;;;;;;5.87;2.73;;;25.30;78.70;;;;;;5049922;28;20215;-72
2023/01/29 11:02:51;;;;;;;3.83;3.17;;;25.20;79.40;;;;;;5047764;28;20187;-70
2023/01/29 11:05:44;;;;;;;5.73;3.10;;;25.30;79.10;;;;;;5050074;28;20183;-70
2023/01/29 11:08:19;;;;;;;6.63;3.97;;;25.30;78.90;;;;;;5049809;28;20281;-71
2023/01/29 11:11:08;;;;;;;5.87;3.90;;;25.30;79.20;;;;;;5049558;28;20214;-72
2023/01/29 11:13:44;;;;;;;4.03;3.10;;;25.30;79.40;;;;;;5050705;28;20212;-73
2023/01/29 11:16:12;;;;;;;5.03;3.10;;;25.30;79.40;;;;;;5049803;28;20271;-72
2023/01/29 11:19:09;;;;;;;6.90;4.00;;;25.40;79.30;;;;;;5047577;28;20180;-73
2023/01/29 11:21:55;;;;;;;5.27;3.43;;;25.40;79.60;;;;;;5038056;28;20200;-72
2023/01/29 11:24:22;;;;;;;4.67;3.20;;;25.50;79.90;;;;;;5048441;28;20195;-74
2023/01/29 11:26:52;;;;;;;4.27;3.03;;;25.40;79.80;;;;;;5050990;28;20222;-72
2023/01/29 11:29:55;;;;;;;6.20;3.40;;;25.40;79.90;;;;;;5047656;28;20926;-72
2023/01/29 11:32:27;;;;;;;6.17;3.37;;;25.40;79.90;;;;;;5049695;28;20653;-75
2023/01/29 11:35:16;;;;;;;4.47;3.77;;;25.40;80.10;;;;;;5049916;28;20180;-74
2023/01/29 11:37:45;;;;;;;6.50;3.87;;;25.30;80.80;;;;;;5049154;28;20553;-72
2023/01/29 11:40:19;;;;;;;5.67;3.60;;;25.30;81.00;;;;;;5048801;28;20180;-73
2023/01/29 11:42:47;;;;;;;4.60;3.80;;;25.30;81.30;;;;;;5067024;28;20187;-71
2023/01/29 11:45:20;;;;;;;4.70;3.77;;;25.30;81.20;;;;;;5050792;28;20241;-70
2023/01/29 11:47:56;;;;;;;7.57;3.77;;;25.30;81.60;;;;;;5052399;28;20191;-72
2023/01/29 11:50:28;;;;;;;5.83;3.67;;;25.30;82.10;;;;;;5054205;28;20634;-71
2023/01/29 11:52:58;;;;;;;5.93;4.13;;;25.20;82.40;;;;;;5053665;28;20258;-70
2023/01/29 11:55:30;;;;;;;5.67;3.90;;;25.20;82.60;;;;;;5050452;28;20267;-75
2023/01/29 11:58:31;;;;;;;8.07;3.87;;;25.20;83.20;;;;;;5052921;28;20203;-74
2023/01/29 12:00:59;;;;;;;7.67;3.93;;;25.10;83.30;;;;;;5041032;28;20210;-74
2023/01/29 12:03:33;;;;;;;8.50;3.93;;;25.10;83.60;;;;;;5051294;28;20294;-75
2023/01/29 12:06:13;;;;;;;7.30;3.80;;;25.00;83.20;;;;;;5053244;28;20275;-72
2023/01/29 12:08:41;;;;;;;9.80;3.90;;;25.00;82.80;;;;;;5046711;28;20665;-72
2023/01/29 12:11:24;;;;;;;6.60;3.70;;;25.00;82.80;;;;;;5055246;28;20224;-75
2023/01/29 12:13:56;;;;;;;5.27;3.50;;;25.00;82.70;;;;;;5052950;28;20192;-73
2023/01/29 12:16:45;;;;;;;4.63;3.10;;;24.90;82.80;;;;;;5053250;28;20279;-73
2023/01/29 12:19:22;;;;;;;5.63;3.30;;;24.80;82.70;;;;;;5049158;28;20219;-74
2023/01/29 12:22:09;;;;;;;6.30;3.30;;;24.80;82.00;;;;;;5057895;28;20175;-73
2023/01/29 12:24:56;;;;;;;4.93;3.30;;;24.80;82.10;;;;;;5058809;28;20233;-74
2023/01/29 12:27:31;;;;;;;5.80;3.10;;;24.80;82.00;;;;;;5052698;28;20242;-75
2023/01/29 12:30:16;;;;;;;4.13;2.60;;;24.70;82.10;;;;;;5054987;28;20241;-73
2023/01/29 12:33:00;;;;;;;3.13;2.83;;;24.70;82.30;;;;;;5054972;28;20265;-72
2023/01/29 12:35:49;;;;;;;3.40;3.10;;;24.60;82.30;;;;;;5051433;28;20657;-73
2023/01/29 12:38:21;;;;;;;3.40;2.73;;;24.70;82.50;;;;;;5057338;28;20185;-74
2023/01/29 12:40:54;;;;;;;3.33;2.53;;;24.60;82.10;;;;;;5057105;28;20317;-74
2023/01/29 12:43:38;;;;;;;2.57;2.37;;;24.70;81.80;;;;;;5055977;28;20180;-75
2023/01/29 12:46:13;;;;;;;5.97;2.90;;;24.60;81.70;;;;;;5063577;28;21369;-74
2023/01/29 12:48:42;;;;;;;4.77;2.70;;;24.60;81.60;;;;;;5054649;28;20264;-73
2023/01/29 12:51:17;;;;;;;3.17;2.60;;;24.50;81.90;;;;;;5054893;28;20227;-74
2023/01/29 12:54:03;;;;;;;3.33;2.80;;;24.50;81.40;;;;;;5052396;28;20693;-74
2023/01/29 12:56:39;;;;;;;3.67;2.60;;;24.40;81.90;;;;;;5054772;28;20212;-73
2023/01/29 12:59:26;;;;;;;3.80;2.77;;;24.40;81.90;;;;;;5049182;28;20225;-74
2023/01/29 13:02:01;;;;;;;4.73;2.40;;;24.40;82.00;;;;;;5045095;28;20196;-73
2023/01/29 13:04:41;;;;;;;3.13;2.40;;;24.40;82.10;;;;;;5055583;28;20233;-74
2023/01/29 13:07:22;;;;;;;3.27;2.43;;;24.40;82.00;;;;;;5054313;28;20262;-71
2023/01/29 13:09:58;;;;;;;3.23;2.50;;;24.40;82.00;;;;;;5053562;28;20180;-73
2023/01/29 13:12:26;;;;;;;4.97;2.57;;;24.50;81.70;;;;;;5057431;28;20185;-72
2023/01/29 13:15:35;;;;;;;3.97;2.37;;;24.50;81.70;;;;;;5053201;28;20180;-72
2023/01/29 13:18:40;;;;;;;3.87;2.40;;;24.50;81.60;;;;;;5036003;28;20631;-73
2023/01/29 13:21:15;;;;;;;3.83;2.50;;;24.60;81.60;;;;;;5033825;28;20196;-74
2023/01/29 13:23:47;;;;;;;2.47;2.27;;;24.50;81.20;;;;;;5057743;28;20198;-75
2023/01/29 13:26:18;;;;;;;4.97;2.53;;;24.50;81.70;;;;;;5054689;28;20180;-74
2023/01/29 13:28:46;;;;;;;3.60;2.30;;;24.50;81.50;;;;;;5053414;28;20184;-74
2023/01/29 13:31:26;;;;;;;3.63;2.70;;;24.60;81.70;;;;;;5050838;28;20242;-74
2023/01/29 13:34:22;;;;;;;4.40;2.30;;;24.60;81.30;;;;;;5051966;28;20187;-73
2023/01/29 13:36:55;;;;;;;3.03;2.30;;;24.50;81.10;;;;;;5052474;28;20176;-74
2023/01/29 13:39:33;;;;;;;4.07;2.30;;;24.50;80.70;;;;;;5052526;28;20241;-73
2023/01/29 13:42:03;;;;;;;4.23;2.27;;;24.50;80.80;;;;;;5053149;28;20237;-75
2023/01/29 13:44:35;;;;;;;3.33;2.20;;;24.50;80.50;;;;;;5052431;28;20187;-73
2023/01/29 13:47:05;;;;;;;3.70;2.20;;;24.50;80.60;;;;;;5053042;28;20192;-74
2023/01/29 13:49:36;;;;;;;3.70;2.10;;;24.40;80.40;;;;;;5049736;28;20268;-75
2023/01/29 13:52:27;;;;;;;2.97;2.10;;;24.40;80.50;;;;;;5052820;28;20243;-73